createdAt,value
2023-04-30T00:00:16.321Z,100.00
2023-04-30T00:01:13.066Z,100.00
2023-04-30T00:02:09.771Z,100.00
2023-04-30T00:03:06.766Z,100.00
2023-04-30T00:04:04.031Z,100.00
2023-04-30T00:05:01.004Z,100.00
2023-04-30T00:05:57.876Z,100.00
2023-04-30T00:06:55.789Z,100.00
2023-04-30T00:07:52.612Z,100.00
2023-04-30T00:08:49.400Z,100.00
2023-04-30T00:09:46.565Z,100.00
2023-04-30T00:10:43.336Z,100.00
2023-04-30T00:11:40.071Z,100.00
2023-04-30T00:12:37.413Z,100.00
2023-04-30T00:13:34.697Z,100.00
2023-04-30T00:14:31.496Z,100.00
2023-04-30T00:15:28.177Z,100.00
2023-04-30T00:16:25.061Z,100.00
2023-04-30T00:17:22.114Z,100.00
2023-04-30T00:18:18.947Z,100.00
2023-04-30T00:19:15.890Z,100.00
2023-04-30T00:20:13.166Z,100.00
2023-04-30T00:21:10.278Z,100.00
2023-04-30T00:22:07.148Z,100.00
2023-04-30T00:23:04.046Z,100.00
2023-04-30T00:24:00.883Z,100.00
2023-04-30T00:24:57.684Z,100.00
2023-04-30T00:25:54.494Z,100.00
2023-04-30T00:26:51.279Z,100.00
2023-04-30T00:27:48.022Z,100.00
2023-04-30T00:28:44.740Z,100.00
2023-04-30T00:29:41.640Z,100.00
2023-04-30T00:30:38.342Z,100.00
2023-04-30T00:31:35.175Z,100.00
2023-04-30T00:32:32.008Z,100.00
2023-04-30T00:33:28.760Z,100.00
2023-04-30T00:34:25.650Z,100.00
2023-04-30T00:35:22.489Z,100.00
2023-04-30T00:36:19.322Z,100.00
2023-04-30T00:37:16.029Z,100.00
2023-04-30T00:38:12.986Z,100.00
2023-04-30T00:39:10.027Z,100.00
2023-04-30T00:40:07.838Z,100.00
2023-04-30T00:41:04.902Z,100.00
2023-04-30T00:42:02.771Z,100.00
2023-04-30T00:42:59.624Z,100.00
2023-04-30T00:43:56.491Z,100.00
2023-04-30T00:44:53.262Z,100.00
2023-04-30T00:45:50.085Z,100.00
2023-04-30T00:46:46.933Z,100.00
2023-04-30T00:47:43.771Z,100.00
2023-04-30T00:48:40.805Z,100.00
2023-04-30T00:49:37.733Z,100.00
2023-04-30T00:50:37.022Z,100.00
2023-04-30T00:51:36.037Z,100.00
2023-04-30T00:52:33.034Z,100.00
2023-04-30T00:53:29.825Z,100.00
2023-04-30T00:54:26.991Z,100.00
2023-04-30T00:55:23.854Z,100.00
2023-04-30T00:56:21.244Z,100.00
2023-04-30T00:57:18.158Z,100.00
2023-04-30T00:58:15.418Z,100.00
2023-04-30T00:59:13.515Z,100.00
2023-04-30T01:00:11.216Z,100.00
2023-04-30T01:01:08.643Z,100.00
2023-04-30T01:02:05.523Z,100.00
2023-04-30T01:03:02.852Z,100.00
2023-04-30T01:04:01.077Z,100.00
2023-04-30T01:04:57.998Z,100.00
2023-04-30T01:05:54.896Z,100.00
2023-04-30T01:06:52.075Z,100.00
2023-04-30T01:07:50.700Z,100.00
2023-04-30T01:08:48.568Z,100.00
2023-04-30T01:09:45.711Z,100.00
2023-04-30T01:10:53.906Z,100.00
2023-04-30T01:12:03.643Z,100.00
2023-04-30T01:13:08.939Z,100.00
2023-04-30T01:14:33.780Z,100.00
2023-04-30T01:15:51.709Z,100.00
2023-04-30T01:17:13.298Z,100.00
2023-04-30T01:18:39.265Z,100.00
2023-04-30T01:19:44.334Z,100.00
2023-04-30T01:20:50.799Z,100.00
2023-04-30T01:21:49.407Z,100.00
2023-04-30T01:22:52.205Z,100.00
2023-04-30T01:24:05.962Z,100.00
2023-04-30T01:25:30.264Z,100.00
2023-04-30T01:26:59.430Z,100.00
2023-04-30T01:28:09.465Z,100.00
2023-04-30T01:29:08.409Z,100.00
2023-04-30T01:30:06.554Z,100.00
2023-04-30T01:31:03.320Z,100.00
2023-04-30T01:32:00.452Z,100.00
2023-04-30T01:32:57.409Z,100.00
2023-04-30T01:33:54.160Z,100.00
2023-04-30T01:34:50.865Z,100.00
2023-04-30T01:36:00.004Z,100.00
2023-04-30T01:36:59.729Z,100.00
2023-04-30T01:38:18.002Z,100.00
2023-04-30T01:39:42.470Z,100.00
2023-04-30T01:40:48.065Z,100.00
2023-04-30T01:41:44.809Z,100.00
2023-04-30T01:42:53.694Z,100.00
2023-04-30T01:44:18.544Z,100.00
2023-04-30T01:45:27.134Z,100.00
2023-04-30T01:46:30.541Z,100.00
2023-04-30T01:47:48.667Z,100.00
2023-04-30T01:48:54.759Z,100.00
2023-04-30T01:50:01.658Z,100.00
2023-04-30T01:51:21.720Z,100.00
2023-04-30T01:52:26.545Z,100.00
2023-04-30T01:53:44.645Z,100.00
2023-04-30T01:55:09.034Z,100.00
2023-04-30T01:56:10.292Z,100.00
2023-04-30T01:57:25.688Z,100.00
2023-04-30T01:58:24.995Z,100.00
2023-04-30T01:59:23.721Z,100.00
2023-04-30T02:00:20.565Z,100.00
2023-04-30T02:01:32.558Z,100.00
2023-04-30T02:02:29.612Z,100.00
2023-04-30T02:03:26.376Z,100.00
2023-04-30T02:04:23.203Z,100.00
2023-04-30T02:05:20.039Z,100.00
2023-04-30T02:06:16.804Z,100.00
2023-04-30T02:07:33.620Z,100.00
2023-04-30T02:08:31.511Z,100.00
2023-04-30T02:09:28.287Z,100.00
2023-04-30T02:10:27.031Z,100.00
2023-04-30T02:11:26.853Z,100.00
2023-04-30T02:12:23.712Z,100.00
2023-04-30T02:13:20.432Z,100.00
2023-04-30T02:14:17.354Z,100.00
2023-04-30T02:15:14.373Z,100.00
2023-04-30T02:16:11.639Z,100.00
2023-04-30T02:17:08.451Z,100.00
2023-04-30T02:18:05.188Z,100.00
2023-04-30T02:19:02.547Z,100.00
2023-04-30T02:19:59.992Z,100.00
2023-04-30T02:20:56.720Z,100.00
2023-04-30T02:21:53.555Z,100.00
2023-04-30T02:22:51.660Z,100.00
2023-04-30T02:23:48.432Z,100.00
2023-04-30T02:24:45.156Z,100.00
2023-04-30T02:25:41.907Z,100.00
2023-04-30T02:26:38.736Z,100.00
2023-04-30T02:27:35.534Z,100.00
2023-04-30T02:28:32.286Z,100.00
2023-04-30T02:29:29.301Z,100.00
2023-04-30T02:30:26.027Z,100.00
2023-04-30T02:31:22.796Z,100.00
2023-04-30T02:32:19.909Z,100.00
2023-04-30T02:33:16.887Z,100.00
2023-04-30T02:34:13.652Z,100.00
2023-04-30T02:35:10.680Z,100.00
2023-04-30T02:36:10.241Z,100.00
2023-04-30T02:37:07.845Z,100.00
2023-04-30T02:38:04.659Z,100.00
2023-04-30T02:39:01.489Z,100.00
2023-04-30T02:39:58.334Z,100.00
2023-04-30T02:40:55.080Z,100.00
2023-04-30T02:41:51.838Z,100.00
2023-04-30T02:42:48.637Z,100.00
2023-04-30T02:43:45.527Z,100.00
2023-04-30T02:44:42.636Z,100.00
2023-04-30T02:45:39.509Z,100.00
2023-04-30T02:46:36.448Z,100.00
2023-04-30T02:47:33.165Z,100.00
2023-04-30T02:48:29.889Z,100.00
2023-04-30T02:49:26.979Z,100.00
2023-04-30T02:50:23.792Z,100.00
2023-04-30T02:51:20.773Z,100.00
2023-04-30T02:52:18.306Z,100.00
2023-04-30T02:53:15.134Z,100.00
2023-04-30T02:54:12.006Z,100.00
2023-04-30T02:55:09.024Z,100.00
2023-04-30T02:56:06.296Z,100.00
2023-04-30T02:57:03.532Z,100.00
2023-04-30T02:58:00.362Z,100.00
2023-04-30T02:58:57.324Z,100.00
2023-04-30T02:59:54.551Z,100.00
2023-04-30T03:00:51.512Z,100.00
2023-04-30T03:01:48.368Z,100.00
2023-04-30T03:02:45.334Z,100.00
2023-04-30T03:03:42.207Z,100.00
2023-04-30T03:04:39.169Z,100.00
2023-04-30T03:05:36.143Z,100.00
2023-04-30T03:06:33.865Z,100.00
2023-04-30T03:07:30.808Z,100.00
2023-04-30T03:08:27.903Z,100.00
2023-04-30T03:09:24.732Z,100.00
2023-04-30T03:10:21.586Z,100.00
2023-04-30T03:11:18.406Z,100.00
2023-04-30T03:12:15.199Z,100.00
2023-04-30T03:13:12.013Z,100.00
2023-04-30T03:14:08.886Z,100.00
2023-04-30T03:15:06.402Z,100.00
2023-04-30T03:16:06.973Z,100.00
2023-04-30T03:17:03.821Z,100.00
2023-04-30T03:18:00.775Z,100.00
2023-04-30T03:18:57.528Z,100.00
2023-04-30T03:19:54.545Z,100.00
2023-04-30T03:20:51.468Z,100.00
2023-04-30T03:21:48.254Z,100.00
2023-04-30T03:22:45.008Z,100.00
2023-04-30T03:23:41.916Z,100.00
2023-04-30T03:24:38.763Z,100.00
2023-04-30T03:25:35.642Z,100.00
2023-04-30T03:26:32.604Z,100.00
2023-04-30T03:27:29.375Z,100.00
2023-04-30T03:28:26.182Z,100.00
2023-04-30T03:29:23.076Z,100.00
2023-04-30T03:30:19.949Z,100.00
2023-04-30T03:31:17.025Z,100.00
2023-04-30T03:32:13.773Z,100.00
2023-04-30T03:33:10.655Z,100.00
2023-04-30T03:34:10.661Z,100.00
2023-04-30T03:35:10.446Z,100.00
2023-04-30T03:36:07.709Z,100.00
2023-04-30T03:37:04.458Z,100.00
2023-04-30T03:38:02.061Z,100.00
2023-04-30T03:38:58.808Z,100.00
2023-04-30T03:39:55.900Z,100.00
2023-04-30T03:40:52.917Z,100.00
2023-04-30T03:41:49.718Z,100.00
2023-04-30T03:42:47.449Z,100.00
2023-04-30T03:43:45.009Z,100.00
2023-04-30T03:44:41.969Z,100.00
2023-04-30T03:45:39.117Z,100.00
2023-04-30T03:46:35.971Z,100.00
2023-04-30T03:47:33.176Z,100.00
2023-04-30T03:48:29.904Z,100.00
2023-04-30T03:49:26.739Z,100.00
2023-04-30T03:50:23.489Z,100.00
2023-04-30T03:51:23.186Z,100.00
2023-04-30T03:52:19.940Z,100.00
2023-04-30T03:53:16.710Z,100.00
2023-04-30T03:54:13.513Z,100.00
2023-04-30T03:55:11.787Z,100.00
2023-04-30T03:56:08.813Z,100.00
2023-04-30T03:57:07.779Z,100.00
2023-04-30T03:58:05.021Z,100.00
2023-04-30T03:59:02.362Z,100.00
2023-04-30T03:59:59.647Z,100.00
2023-04-30T04:00:56.597Z,100.00
2023-04-30T04:01:56.446Z,100.00
2023-04-30T04:02:53.566Z,100.00
2023-04-30T04:03:50.651Z,100.00
2023-04-30T04:04:48.085Z,100.00
2023-04-30T04:05:45.030Z,100.00
2023-04-30T04:06:41.876Z,100.00
2023-04-30T04:07:38.718Z,100.00
2023-04-30T04:08:36.782Z,100.00
2023-04-30T04:09:33.541Z,100.00
2023-04-30T04:10:30.402Z,100.00
2023-04-30T04:11:27.172Z,100.00
2023-04-30T04:12:24.067Z,100.00
2023-04-30T04:13:20.972Z,100.00
2023-04-30T04:14:17.704Z,100.00
2023-04-30T04:15:14.469Z,100.00
2023-04-30T04:16:11.370Z,100.00
2023-04-30T04:17:08.368Z,100.00
2023-04-30T04:18:07.066Z,100.00
2023-04-30T04:19:04.543Z,100.00
2023-04-30T04:20:01.290Z,100.00
2023-04-30T04:20:58.116Z,100.00
2023-04-30T04:21:54.933Z,100.00
2023-04-30T04:22:51.752Z,100.00
2023-04-30T04:23:48.507Z,100.00
2023-04-30T04:24:45.792Z,100.00
2023-04-30T04:25:44.390Z,100.00
2023-04-30T04:26:46.654Z,100.00
2023-04-30T04:27:45.027Z,100.00
2023-04-30T04:28:42.241Z,100.00
2023-04-30T04:29:39.049Z,100.00
2023-04-30T04:30:36.758Z,100.00
2023-04-30T04:31:33.590Z,100.00
2023-04-30T04:32:30.738Z,100.00
2023-04-30T04:33:27.942Z,100.00
2023-04-30T04:34:24.803Z,100.00
2023-04-30T04:35:21.767Z,100.00
2023-04-30T04:36:18.568Z,100.00
2023-04-30T04:37:15.955Z,100.00
2023-04-30T04:38:15.773Z,100.00
2023-04-30T04:39:14.858Z,100.00
2023-04-30T04:40:12.452Z,100.00
2023-04-30T04:41:09.286Z,100.00
2023-04-30T04:42:06.271Z,100.00
2023-04-30T04:43:03.141Z,100.00
2023-04-30T04:44:01.938Z,100.00
2023-04-30T04:44:58.706Z,100.00
2023-04-30T04:45:55.523Z,100.00
2023-04-30T04:46:54.015Z,100.00
2023-04-30T04:47:50.981Z,100.00
2023-04-30T04:48:47.811Z,100.00
2023-04-30T04:49:44.639Z,100.00
2023-04-30T04:50:41.699Z,100.00
2023-04-30T04:51:39.657Z,100.00
2023-04-30T04:52:36.637Z,100.00
2023-04-30T04:53:34.896Z,100.00
2023-04-30T04:54:31.950Z,100.00
2023-04-30T04:55:28.649Z,100.00
2023-04-30T04:56:25.524Z,100.00
2023-04-30T04:57:22.441Z,100.00
2023-04-30T04:58:19.279Z,100.00
2023-04-30T04:59:17.555Z,100.00
2023-04-30T05:00:14.678Z,100.00
2023-04-30T05:01:11.646Z,100.00
2023-04-30T05:02:08.470Z,100.00
2023-04-30T05:03:05.496Z,100.00
2023-04-30T05:04:02.518Z,100.00
2023-04-30T05:04:59.522Z,100.00
2023-04-30T05:05:56.621Z,100.00
2023-04-30T05:06:54.707Z,100.00
2023-04-30T05:07:52.689Z,100.00
2023-04-30T05:08:49.602Z,100.00
2023-04-30T05:09:47.241Z,100.00
2023-04-30T05:10:44.137Z,100.00
2023-04-30T05:11:41.744Z,100.00
2023-04-30T05:12:38.690Z,100.00
2023-04-30T05:13:35.530Z,100.00
2023-04-30T05:14:32.385Z,100.00
2023-04-30T05:15:29.436Z,100.00
2023-04-30T05:16:26.838Z,100.00
2023-04-30T05:17:23.723Z,100.00
2023-04-30T05:18:20.864Z,100.00
2023-04-30T05:19:17.670Z,100.00
2023-04-30T05:20:14.497Z,100.00
2023-04-30T05:21:11.278Z,100.00
2023-04-30T05:22:08.069Z,100.00
2023-04-30T05:23:04.981Z,100.00
2023-04-30T05:24:03.449Z,100.00
2023-04-30T05:25:00.401Z,100.00
2023-04-30T05:25:57.288Z,100.00
2023-04-30T05:26:54.143Z,100.00
2023-04-30T05:27:51.513Z,100.00
2023-04-30T05:28:48.318Z,100.00
2023-04-30T05:29:45.200Z,100.00
2023-04-30T05:30:42.025Z,100.00
2023-04-30T05:31:39.011Z,100.00
2023-04-30T05:32:35.921Z,100.00
2023-04-30T05:33:32.694Z,100.00
2023-04-30T05:34:29.464Z,100.00
2023-04-30T05:35:26.250Z,100.00
2023-04-30T05:36:23.035Z,100.00
2023-04-30T05:37:20.697Z,100.00
2023-04-30T05:38:17.549Z,100.00
2023-04-30T05:39:14.442Z,100.00
2023-04-30T05:40:12.518Z,100.00
2023-04-30T05:41:12.403Z,100.00
2023-04-30T05:42:09.234Z,100.00
2023-04-30T05:43:06.038Z,100.00
2023-04-30T05:44:04.988Z,100.00
2023-04-30T05:45:02.947Z,100.00
2023-04-30T05:45:59.723Z,100.00
2023-04-30T05:46:56.546Z,100.00
2023-04-30T05:47:53.563Z,100.00
2023-04-30T05:48:50.400Z,100.00
2023-04-30T05:49:47.245Z,100.00
2023-04-30T05:50:44.047Z,100.00
2023-04-30T05:51:40.876Z,100.00
2023-04-30T05:52:37.672Z,100.00
2023-04-30T05:53:34.484Z,100.00
2023-04-30T05:54:31.468Z,100.00
2023-04-30T05:55:28.293Z,100.00
2023-04-30T05:56:25.459Z,100.00
2023-04-30T05:57:22.271Z,100.00
2023-04-30T05:58:19.200Z,100.00
2023-04-30T05:59:15.974Z,100.00
2023-04-30T06:00:13.690Z,100.00
2023-04-30T06:01:11.247Z,100.00
2023-04-30T06:02:08.303Z,100.00
2023-04-30T06:03:05.120Z,100.00
2023-04-30T06:04:01.963Z,100.00
2023-04-30T06:04:58.738Z,100.00
2023-04-30T06:05:55.668Z,100.00
2023-04-30T06:06:52.448Z,100.00
2023-04-30T06:07:49.291Z,100.00
2023-04-30T06:08:46.082Z,100.00
2023-04-30T06:09:42.955Z,100.00
2023-04-30T06:10:40.125Z,100.00
2023-04-30T06:11:42.299Z,100.00
2023-04-30T06:12:39.977Z,100.00
2023-04-30T06:13:37.006Z,100.00
2023-04-30T06:14:33.815Z,100.00
2023-04-30T06:15:30.737Z,100.00
2023-04-30T06:16:27.974Z,100.00
2023-04-30T06:17:24.856Z,100.00
2023-04-30T06:18:21.592Z,100.00
2023-04-30T06:19:18.353Z,100.00
2023-04-30T06:20:15.951Z,100.00
2023-04-30T06:21:12.794Z,100.00
2023-04-30T06:22:09.599Z,100.00
2023-04-30T06:23:07.046Z,100.00
2023-04-30T06:24:03.962Z,100.00
2023-04-30T06:25:01.072Z,100.00
2023-04-30T06:25:57.846Z,100.00
2023-04-30T06:26:54.601Z,100.00
2023-04-30T06:27:54.130Z,100.00
2023-04-30T06:28:51.004Z,100.00
2023-04-30T06:29:47.752Z,100.00
2023-04-30T06:30:44.671Z,100.00
2023-04-30T06:31:41.405Z,100.00
2023-04-30T06:32:38.163Z,100.00
2023-04-30T06:33:35.057Z,100.00
2023-04-30T06:34:32.459Z,100.00
2023-04-30T06:35:29.237Z,100.00
2023-04-30T06:36:25.943Z,100.00
2023-04-30T06:37:22.855Z,100.00
2023-04-30T06:38:19.617Z,100.00
2023-04-30T06:39:17.119Z,100.00
2023-04-30T06:40:13.947Z,100.00
2023-04-30T06:41:10.729Z,100.00
2023-04-30T06:42:07.501Z,100.00
2023-04-30T06:43:04.283Z,100.00
2023-04-30T06:44:01.070Z,100.00
2023-04-30T06:44:57.827Z,100.00
2023-04-30T06:45:54.706Z,100.00
2023-04-30T06:46:51.500Z,100.00
2023-04-30T06:47:48.464Z,100.00
2023-04-30T06:48:45.369Z,100.00
2023-04-30T06:49:42.291Z,100.00
2023-04-30T06:50:44.946Z,100.00
2023-04-30T06:51:42.805Z,100.00
2023-04-30T06:52:39.593Z,100.00
2023-04-30T06:53:36.670Z,100.00
2023-04-30T06:54:33.387Z,100.00
2023-04-30T06:55:30.357Z,100.00
2023-04-30T06:56:27.234Z,100.00
2023-04-30T06:57:24.821Z,100.00
2023-04-30T06:58:21.653Z,100.00
2023-04-30T06:59:18.644Z,100.00
2023-04-30T07:00:15.600Z,100.00
2023-04-30T07:01:12.425Z,100.00
2023-04-30T07:02:09.281Z,100.00
2023-04-30T07:03:06.767Z,100.00
2023-04-30T07:04:03.650Z,100.00
2023-04-30T07:05:00.592Z,100.00
2023-04-30T07:05:57.648Z,100.00
2023-04-30T07:06:54.545Z,100.00
2023-04-30T07:07:51.432Z,100.00
2023-04-30T07:08:48.610Z,100.00
2023-04-30T07:09:45.408Z,100.00
2023-04-30T07:10:42.156Z,100.00
2023-04-30T07:11:40.033Z,100.00
2023-04-30T07:12:36.838Z,100.00
2023-04-30T07:13:33.880Z,100.00
2023-04-30T07:14:30.804Z,100.00
2023-04-30T07:15:27.552Z,100.00
2023-04-30T07:16:28.041Z,100.00
2023-04-30T07:17:27.511Z,100.00
2023-04-30T07:18:24.534Z,100.00
2023-04-30T07:19:21.389Z,100.00
2023-04-30T07:20:18.400Z,100.00
2023-04-30T07:21:17.348Z,100.00
2023-04-30T07:22:14.221Z,100.00
2023-04-30T07:23:11.019Z,100.00
2023-04-30T07:24:07.928Z,100.00
2023-04-30T07:25:06.101Z,100.00
2023-04-30T07:26:02.994Z,100.00
2023-04-30T07:27:02.904Z,100.00
2023-04-30T07:27:59.829Z,100.00
2023-04-30T07:28:58.689Z,100.00
2023-04-30T07:29:56.324Z,100.00
2023-04-30T07:30:53.529Z,100.00
2023-04-30T07:31:50.752Z,100.00
2023-04-30T07:32:47.876Z,100.00
2023-04-30T07:33:45.143Z,100.00
2023-04-30T07:34:42.184Z,100.00
2023-04-30T07:35:39.155Z,100.00
2023-04-30T07:36:36.035Z,100.00
2023-04-30T07:37:35.052Z,100.00
2023-04-30T07:38:33.345Z,100.00
2023-04-30T07:39:31.140Z,100.00
2023-04-30T07:40:35.809Z,100.00
2023-04-30T07:41:33.216Z,100.00
2023-04-30T07:42:29.963Z,100.00
2023-04-30T07:43:26.706Z,100.00
2023-04-30T07:44:23.599Z,100.00
2023-04-30T07:45:20.887Z,100.00
2023-04-30T07:46:17.894Z,100.00
2023-04-30T07:47:14.942Z,100.00
2023-04-30T07:48:11.765Z,100.00
2023-04-30T07:49:08.478Z,100.00
2023-04-30T07:50:06.287Z,100.00
2023-04-30T07:51:04.893Z,100.00
2023-04-30T07:52:01.926Z,100.00
2023-04-30T07:52:58.695Z,100.00
2023-04-30T07:53:55.668Z,100.00
2023-04-30T07:54:52.432Z,100.00
2023-04-30T07:55:49.604Z,100.00
2023-04-30T07:56:48.814Z,100.00
2023-04-30T07:57:45.817Z,100.00
2023-04-30T07:58:42.692Z,100.00
2023-04-30T07:59:39.495Z,100.00
2023-04-30T08:00:36.583Z,100.00
2023-04-30T08:01:33.649Z,100.00
2023-04-30T08:02:30.843Z,100.00
2023-04-30T08:03:27.885Z,100.00
2023-04-30T08:04:25.078Z,100.00
2023-04-30T08:05:21.903Z,100.00
2023-04-30T08:06:19.329Z,100.00
2023-04-30T08:07:17.207Z,100.00
2023-04-30T08:08:14.052Z,100.00
2023-04-30T08:09:11.063Z,100.00
2023-04-30T08:10:08.202Z,100.00
2023-04-30T08:11:05.196Z,100.00
2023-04-30T08:12:02.113Z,100.00
2023-04-30T08:12:58.928Z,100.00
2023-04-30T08:13:55.784Z,100.00
2023-04-30T08:15:03.450Z,100.00
2023-04-30T08:16:00.402Z,100.00
2023-04-30T08:16:59.485Z,100.00
2023-04-30T08:17:56.453Z,100.00
2023-04-30T08:18:53.280Z,100.00
2023-04-30T08:19:50.348Z,100.00
2023-04-30T08:20:47.251Z,100.00
2023-04-30T08:21:44.208Z,100.00
2023-04-30T08:22:40.855Z,100.00
2023-04-30T08:23:37.565Z,100.00
2023-04-30T08:24:34.322Z,100.00
2023-04-30T08:25:31.887Z,100.00
2023-04-30T08:26:28.675Z,100.00
2023-04-30T08:27:25.538Z,100.00
2023-04-30T08:28:22.485Z,100.00
2023-04-30T08:29:19.259Z,100.00
2023-04-30T08:30:16.303Z,100.00
2023-04-30T08:31:13.346Z,100.00
2023-04-30T08:32:10.363Z,100.00
2023-04-30T08:33:07.313Z,100.00
2023-04-30T08:34:04.108Z,100.00
2023-04-30T08:35:00.951Z,100.00
2023-04-30T08:35:57.894Z,100.00
2023-04-30T08:36:54.641Z,100.00
2023-04-30T08:37:51.504Z,100.00
2023-04-30T08:38:48.181Z,100.00
2023-04-30T08:39:44.960Z,100.00
2023-04-30T08:40:52.677Z,100.00
2023-04-30T08:41:56.091Z,100.00
2023-04-30T08:43:20.241Z,100.00
2023-04-30T08:44:20.699Z,100.00
2023-04-30T08:45:19.910Z,100.00
2023-04-30T08:46:18.002Z,100.00
2023-04-30T08:47:17.118Z,100.00
2023-04-30T08:48:23.652Z,100.00
2023-04-30T08:49:25.373Z,100.00
2023-04-30T08:50:22.157Z,100.00
2023-04-30T08:51:22.301Z,100.00
2023-04-30T08:52:19.721Z,100.00
2023-04-30T08:53:19.129Z,100.00
2023-04-30T08:54:20.770Z,100.00
2023-04-30T08:55:17.587Z,100.00
2023-04-30T08:56:15.389Z,100.00
2023-04-30T08:57:12.137Z,100.00
2023-04-30T08:58:13.663Z,100.00
2023-04-30T08:59:13.381Z,100.00
2023-04-30T09:00:13.651Z,100.00
2023-04-30T09:01:12.370Z,100.00
2023-04-30T09:02:11.660Z,100.00
2023-04-30T09:03:09.071Z,100.00
2023-04-30T09:04:09.983Z,100.00
2023-04-30T09:05:12.087Z,100.00
2023-04-30T09:06:09.150Z,100.00
2023-04-30T09:07:09.698Z,100.00
2023-04-30T09:08:09.632Z,100.00
2023-04-30T09:09:14.336Z,100.00
2023-04-30T09:10:32.838Z,100.00
2023-04-30T09:11:31.625Z,100.00
2023-04-30T09:12:28.656Z,100.00
2023-04-30T09:13:25.382Z,100.00
2023-04-30T09:14:28.629Z,100.00
2023-04-30T09:15:26.159Z,100.00
2023-04-30T09:16:24.588Z,100.00
2023-04-30T09:17:25.785Z,100.00
2023-04-30T09:18:25.772Z,100.00
2023-04-30T09:19:28.664Z,100.00
2023-04-30T09:20:26.356Z,100.00
2023-04-30T09:21:35.947Z,100.00
2023-04-30T09:22:32.742Z,100.00
2023-04-30T09:23:30.540Z,100.00
2023-04-30T09:24:27.865Z,100.00
2023-04-30T09:25:42.386Z,100.00
2023-04-30T09:26:39.150Z,100.00
2023-04-30T09:27:39.013Z,100.00
2023-04-30T09:28:36.918Z,100.00
2023-04-30T09:29:41.295Z,100.00
2023-04-30T09:30:39.184Z,100.00
2023-04-30T09:31:37.897Z,100.00
2023-04-30T09:32:34.820Z,100.00
2023-04-30T09:33:49.734Z,100.00
2023-04-30T09:34:46.492Z,100.00
2023-04-30T09:35:46.807Z,100.00
2023-04-30T09:36:55.968Z,100.00
2023-04-30T09:37:52.830Z,100.00
2023-04-30T09:38:49.615Z,100.00
2023-04-30T09:39:56.700Z,100.00
2023-04-30T09:40:53.921Z,100.00
2023-04-30T09:41:53.663Z,100.00
2023-04-30T09:43:00.411Z,100.00
2023-04-30T09:44:02.244Z,100.00
2023-04-30T09:45:01.404Z,100.00
2023-04-30T09:46:02.290Z,100.00
2023-04-30T09:46:59.609Z,100.00
2023-04-30T09:48:12.814Z,100.00
2023-04-30T09:49:15.886Z,99.47
2023-04-30T09:50:16.134Z,100.00
2023-04-30T09:51:14.010Z,99.03
2023-04-30T09:52:11.902Z,98.49
2023-04-30T09:53:16.912Z,99.13
2023-04-30T09:54:16.088Z,97.65
2023-04-30T09:55:12.889Z,93.80
2023-04-30T09:56:14.038Z,94.93
2023-04-30T09:57:16.521Z,95.51
2023-04-30T09:58:15.637Z,93.43
2023-04-30T09:59:14.740Z,91.55
2023-04-30T10:00:16.805Z,91.93
2023-04-30T10:01:13.703Z,93.18
2023-04-30T10:02:13.277Z,95.67
2023-04-30T10:03:14.837Z,93.56
2023-04-30T10:04:12.251Z,96.53
2023-04-30T10:05:11.783Z,95.82
2023-04-30T10:06:12.972Z,96.30
2023-04-30T10:07:20.076Z,96.43
2023-04-30T10:08:31.488Z,98.10
2023-04-30T10:09:36.759Z,98.61
2023-04-30T10:10:34.554Z,100.00
2023-04-30T10:11:38.591Z,100.00
2023-04-30T10:12:39.419Z,100.00
2023-04-30T10:13:52.544Z,100.00
2023-04-30T10:14:55.609Z,100.00
2023-04-30T10:16:07.569Z,100.00
2023-04-30T10:17:19.615Z,100.00
2023-04-30T10:18:28.558Z,100.00
2023-04-30T10:19:38.979Z,100.00
2023-04-30T10:20:41.159Z,100.00
2023-04-30T10:21:43.745Z,100.00
2023-04-30T10:22:47.290Z,100.00
2023-04-30T10:23:47.369Z,100.00
2023-04-30T10:24:47.613Z,100.00
2023-04-30T10:25:46.107Z,100.00
2023-04-30T10:26:47.063Z,100.00
2023-04-30T10:27:43.872Z,100.00
2023-04-30T10:28:44.716Z,100.00
2023-04-30T10:29:48.243Z,100.00
2023-04-30T10:30:45.023Z,100.00
2023-04-30T10:31:50.824Z,100.00
2023-04-30T10:33:25.726Z,100.00
2023-04-30T10:34:52.966Z,100.00
2023-04-30T10:36:12.223Z,100.00
2023-04-30T10:37:20.586Z,100.00
2023-04-30T10:38:37.955Z,100.00
2023-04-30T10:39:38.854Z,100.00
2023-04-30T10:40:38.822Z,100.00
2023-04-30T10:41:38.186Z,100.00
2023-04-30T10:42:38.717Z,100.00
2023-04-30T10:43:44.028Z,100.00
2023-04-30T10:44:40.891Z,100.00
2023-04-30T10:45:55.559Z,100.00
2023-04-30T10:47:04.508Z,100.00
2023-04-30T10:48:03.281Z,100.00
2023-04-30T10:49:03.553Z,100.00
2023-04-30T10:50:10.356Z,100.00
2023-04-30T10:51:13.449Z,100.00
2023-04-30T10:52:11.571Z,100.00
2023-04-30T10:53:15.738Z,100.00
2023-04-30T10:54:19.398Z,100.00
2023-04-30T10:55:23.387Z,100.00
2023-04-30T10:56:33.541Z,100.00
2023-04-30T10:57:30.776Z,100.00
2023-04-30T10:58:32.939Z,100.00
2023-04-30T10:59:29.794Z,100.00
2023-04-30T11:00:29.482Z,100.00
2023-04-30T11:01:27.051Z,100.00
2023-04-30T11:02:26.354Z,100.00
2023-04-30T11:03:23.172Z,100.00
2023-04-30T11:04:31.047Z,100.00
2023-04-30T11:05:41.229Z,100.00
2023-04-30T11:06:52.781Z,100.00
2023-04-30T11:07:58.445Z,100.00
2023-04-30T11:09:04.412Z,100.00
2023-04-30T11:10:08.833Z,100.00
2023-04-30T11:11:09.360Z,100.00
2023-04-30T11:12:20.030Z,100.00
2023-04-30T11:13:18.705Z,100.00
2023-04-30T11:14:23.592Z,100.00
2023-04-30T11:15:24.775Z,100.00
2023-04-30T11:16:36.966Z,100.00
2023-04-30T11:17:40.034Z,100.00
2023-04-30T11:18:47.452Z,100.00
2023-04-30T11:19:56.577Z,100.00
2023-04-30T11:21:01.941Z,100.00
2023-04-30T11:22:07.909Z,100.00
2023-04-30T11:23:25.281Z,100.00
2023-04-30T11:24:54.353Z,100.00
2023-04-30T11:25:54.875Z,100.00
2023-04-30T11:27:08.912Z,100.00
2023-04-30T11:28:05.957Z,100.00
2023-04-30T11:29:05.481Z,100.00
2023-04-30T11:30:11.757Z,100.00
2023-04-30T11:31:10.181Z,100.00
2023-04-30T11:32:07.716Z,100.00
2023-04-30T11:33:11.571Z,100.00
2023-04-30T11:34:13.080Z,100.00
2023-04-30T11:35:12.622Z,100.00
2023-04-30T11:36:09.692Z,100.00
2023-04-30T11:37:23.978Z,100.00
2023-04-30T11:38:29.154Z,100.00
2023-04-30T11:39:29.000Z,100.00
2023-04-30T11:40:27.060Z,100.00
2023-04-30T11:41:29.206Z,100.00
2023-04-30T11:42:26.423Z,100.00
2023-04-30T11:43:27.842Z,100.00
2023-04-30T11:44:28.354Z,100.00
2023-04-30T11:45:27.189Z,100.00
2023-04-30T11:46:24.188Z,100.00
2023-04-30T11:47:21.344Z,100.00
2023-04-30T11:48:18.402Z,100.00
2023-04-30T11:49:15.483Z,100.00
2023-04-30T11:50:17.269Z,100.00
2023-04-30T11:51:19.988Z,100.00
2023-04-30T11:52:21.579Z,100.00
2023-04-30T11:53:18.591Z,100.00
2023-04-30T11:54:16.159Z,100.00
2023-04-30T11:55:17.999Z,100.00
2023-04-30T11:56:23.522Z,100.00
2023-04-30T11:57:20.776Z,100.00
2023-04-30T11:58:17.800Z,100.00
2023-04-30T11:59:18.898Z,100.00
2023-04-30T12:00:18.455Z,100.00
2023-04-30T12:01:16.662Z,100.00
2023-04-30T12:02:17.164Z,100.00
2023-04-30T12:03:19.759Z,100.00
2023-04-30T12:04:18.309Z,100.00
2023-04-30T12:05:20.846Z,100.00
2023-04-30T12:06:24.998Z,100.00
2023-04-30T12:07:22.762Z,100.00
2023-04-30T12:08:24.929Z,100.00
2023-04-30T12:09:21.767Z,100.00
2023-04-30T12:10:22.789Z,100.00
2023-04-30T12:11:33.364Z,100.00
2023-04-30T12:12:30.690Z,100.00
2023-04-30T12:13:27.573Z,100.00
2023-04-30T12:14:25.401Z,100.00
2023-04-30T12:15:27.575Z,100.00
2023-04-30T12:16:25.657Z,100.00
2023-04-30T12:17:35.823Z,100.00
2023-04-30T12:18:33.279Z,100.00
2023-04-30T12:19:30.202Z,100.00
2023-04-30T12:20:31.316Z,100.00
2023-04-30T12:21:29.140Z,100.00
2023-04-30T12:22:29.114Z,100.00